EmailTwitter


Observations de surface / Québec / CYUL (71627)

Régions: Québec | Canada | États-Unis | Europe | France | UK | Elsewhere
Station
Affichage
Infos & localisation pour CYUL (71627) | Aide pour décoder les METARs

Observations prises le 2017-02-22 à 03H00 UTC à MONTREAL INTL A, QB (CYUL)

Etat du ciel: couvert.

Température: 0.0 Celsius

Point de rosée: -4.0 Celsius

Humidité relative: 74%

Vents: Nord-nord-est à 6 km/h ou 3 noeuds.

Pression au niveau moyen de la mer: 101.52 kilopascals.

Calage altimétrique: 101.49 kilopascals ou 29.97 pouces de mercure.

Visibilité horizontale: 15.00 milles terrestres ou 24.00 kilomètres.

Hauteur du plafond: 1219 mètres ( 4000 pieds ).

Observation METAR:

CYUL 220300Z 02003KT 15SM OVC040 M00/M04 A2997 RMK SC8 SLP152=